AirNav   Phillips 66 Aviation Fuel
 
 764 users online  

NV21 Sky Ranch Heliport
Sandy Valley, Nevada, USA

GOING TO SANDY VALLEY?


FAA INFORMATION EFFECTIVE 14 SEPTEMBER 2017

Location

FAA Identifier: NV21
Lat/Long: 35-47-00.0300N / 115-37-33.2800W
35-47.000500N / 115-37.554667W
35.7833417 / -115.6259111
(estimated)
Elevation: 2599 ft. / 792 m (estimated)
Variation: 14E (1985)
From city: 30 miles SW of SANDY VALLEY, NV
Time zone: UTC -7 (UTC -8 during Standard Time)
Zip code: 89019

Heliport Operations

Heliport use: Private use. Permission required prior to landing
Activation date: 07/1991
Control tower: no
ARTCC: LOS ANGELES CENTER
FSS: RENO FLIGHT SERVICE STATION
Attendance: UNATNDD
Segmented circle: no

Nearby radio navigation aids

VOR radial/distance  VOR name  Freq  Var
LASr217/28.8LAS VEGAS VORTAC116.9015E
BLDr236/39.2BOULDER CITY VORTAC116.7015E

Heliport Services

Runway Information

Helipad H1

Dimensions: 54 x 54 ft. / 16 x 16 m
Surface: concrete
Latitude: 35-47.000500N
Longitude: 115-37.554667W
Elevation: 2599.0 ft.
Traffic pattern: leftleft

Heliport Ownership and Management from official FAA records

Ownership: Privately-owned
Owner: MEL AND MARILYN LARSON
13000 S. LAS VEGAS BLVD.
LAS VEGAS, NV 89044
Phone 702-361-0013
702-361-3001
Manager: MEL AND MARILYN LARSON
13000 S. LAS VEGAS BLVD.
LAS VEGAS, NV 89044
Phone 702-361-0013
702-361-3001

Instrument Procedures

There are no published instrument procedures at NV21.

Some nearby airports with instrument procedures:

KHND - Henderson Executive Airport (26 nm NE)
KLAS - Mc Carran International Airport (29 nm NE)
KVGT - North Las Vegas Airport (33 nm NE)
KBVU - Boulder City Municipal Airport (38 nm E)
KLSV - Nellis Air Force Base (40 nm NE)
 
Loc | Ops | Rwys | IFR | FBO | Links
Com | Nav | Svcs | Stats | Notes


 
Area around NV21 (Sky Ranch Heliport)
 
Road maps at: MapQuest Bing Google
 
Aerial photo
No photo
 
Sectional chart

 
Airport distance calculator
Flying to Sky Ranch Heliport? Find the distance to fly.

From to NV21

Sunrise and sunset
Times for 23-Sep-2017
 Local
(UTC-7)
 Zulu
(UTC)
Morning civil twilight06:0713:07
Sunrise06:3213:32
Sunset18:3701:37
Evening civil twilight19:0302:03

Current date and time
Zulu (UTC)  23-Sep-2017 12:28:44
Local (UTC-7)  23-Sep-2017 05:28:44
 
METAR
KHND 
27nm NE 
231156Z AUTO 05007KT 10SM CLR 15/M02 A2981 RMK AO2 SLP081 T01501017 10161 20139 53004 $
KLAS 
29nm NE 
231156Z 33015G22KT 10SM FEW120 17/M01 A2978 RMK AO2 SLP068 T01721011 10206 20172 53003
KVGT 
32nm NE 
231153Z AUTO 34012G21KT 10SM BKN100 17/M02 A2978 RMK AO2 SLP085 T01671017 10194 20161 53004
KBVU 
38nm E 
231215Z AUTO 36007KT 10SM 16/M02 A2980 RMK AO2
KLSV 
39nm NE 
231158Z AUTO 00000KT 10SM SCT110 16/M02 A2979 RMK AO2 SLP073 T01581018 10192 20154 53005 $
KINS 
48nm N 
231158Z AUTO 00000KT 10SM CLR 08/M05 A2985 RMK AO2 SLP083 T00811047 10149 20077 53005 $
TAF
KHND 
27nm NE 
231120Z 2312/2412 05008KT P6SM FEW120 FM231300 34010KT P6SM FEW120 FM231800 34012G22KT P6SM FEW120 FM240100 36008KT P6SM FEW120 FM240500 VRB05KT P6SM SKC
KLAS 
29nm NE 
231120Z 2312/2418 36011KT P6SM FEW120 FM231900 32011G20KT P6SM FEW120 FM240200 36008KT P6SM FEW120 FM240500 23008KT P6SM SKC FM241500 34007KT P6SM SKC
KVGT 
32nm NE 
231120Z 2312/2412 34011G20KT P6SM FEW120 FM240200 03009KT P6SM FEW120 FM240500 35008KT P6SM SKC
NOTAMs
Click for the latest NOTAMs
NOTAMs are issued by the DoD/FAA and will open in a separate window not controlled by AirNav.

 

 
 

Would you like to see your business listed on this page?

 If your business provides an interesting product or service to pilots, flight crews, aircraft, or users of the Sky Ranch Heliport, you should consider listing it here.  To start the listing process, click on the button below
 
Add a business
 

Other Pages about Sky Ranch Heliport

Update a link
 
Copyright © AirNav, LLC. All rights reserved. Privacy Policy  Contact